Thursday, September 20, 2018, 10:21 PM EDT
Back to Local

KVAY, Mt Holly South Jersey Rgnl

Location: Medford, NJ, United States Lat: 39.933
Local Time: 10:21 PM EDT ( 2:21 GMT) Lon: -74.833
Time Zone: US/Eastern Elev: 52 ft

Show me the last for .
Show Decoded

2018-09-20 21:54 METAR KVAY 210154Z AUTO 00000KT 10SM CLR 18/16 A3024 RMK AO2 SLP240 T01780161 =
2018-09-20 20:54 METAR KVAY 210054Z AUTO 00000KT 10SM OVC050 19/17 A3024 RMK AO2 SLP239 T01890167
                 =
2018-09-20 19:54 METAR KVAY 202354Z AUTO 13005KT 10SM OVC033 19/17 A3023 RMK AO2 SLP235 T01940167
                 10228 20194 53009 =
2018-09-20 18:54 METAR KVAY 202254Z AUTO 14004KT 10SM OVC031 20/17 A3022 RMK AO2 SLP233 T02000167
                 =
2018-09-20 18:17 METAR KVAY 202217Z AUTO 14004KT 10SM BKN029 OVC050 21/17 A3021 RMK AO2 T02060172
                 =
2018-09-20 17:54 METAR KVAY 202154Z AUTO 12004KT 10SM FEW037 OVC055 22/17 A3021 RMK AO2 SLP228
                 T02170172 =
2018-09-20 16:54 METAR KVAY 202054Z AUTO VRB04KT 10SM SCT039 OVC050 22/18 A3020 RMK AO2 SLP227
                 T02220178 55005 =
2018-09-20 16:10 METAR KVAY 202010Z AUTO VRB03KT 10SM SCT025 OVC035 22/17 A3020 RMK AO2 T02170172
                 =
2018-09-20 15:54 METAR KVAY 201954Z AUTO VRB03KT 10SM OVC027 22/17 A3020 RMK AO2 SLP225 T02170172
                 =
2018-09-20 14:54 METAR KVAY 201854Z AUTO 10004KT 10SM OVC026 22/17 A3021 RMK AO2 SLP228 T02170172
                 =
2018-09-20 13:54 METAR KVAY 201754Z AUTO 10SM OVC024 23/18 A3022 RMK AO2 SLP231 T02280178 10228
                 20189 58001 =
2018-09-20 12:54 METAR KVAY 201654Z AUTO 11005KT 10SM OVC024 21/17 A3023 RMK AO2 SLP237 T02110172
                 =
2018-09-20 11:54 METAR KVAY 201554Z AUTO 11003KT 10SM OVC027 21/17 A3023 RMK AO2 SLP235 T02110167
                 =
2018-09-20 11:10 METAR KVAY 201510Z AUTO 09004KT 10SM BKN023 BKN034 OVC055 21/17 A3023 RMK AO2
                 T02110167 =
2018-09-20 10:54 METAR KVAY 201454Z AUTO VRB04KT 10SM FEW022 SCT034 OVC055 21/17 A3022 RMK AO2
                 SLP233 T02110167 51008 =
2018-09-20 10:50 METAR KVAY 201450Z AUTO 08005KT 10SM SCT022 SCT034 OVC055 22/17 A3022 RMK AO2 =
2018-09-20 10:30 METAR KVAY 201430Z AUTO 12004KT 10SM BKN020 BKN034 OVC055 21/17 A3022 RMK AO2
                 T02110172 =
2018-09-20 09:54 METAR KVAY 201354Z AUTO 11005KT 10SM OVC055 20/17 A3021 RMK AO2 SLP230 T02000172
                 =
2018-09-20 09:39 METAR KVAY 201339Z AUTO 12004KT 10SM SCT021 SCT030 OVC050 20/18 A3021 RMK AO2
                 T02000178 =
2018-09-20 08:54 METAR KVAY 201254Z AUTO VRB04KT 10SM FEW017 OVC025 19/17 A3020 RMK AO2 SLP225
                 T01940172 =
2018-09-20 07:54 METAR KVAY 201154Z AUTO 00000KT 10SM OVC024 19/18 A3017 RMK AO2 SLP214 70001
                 T01890178 10206 20189 51026 =
2018-09-20 06:54 METAR KVAY 201054Z AUTO 00000KT 10SM OVC017 19/18 A3015 RMK AO2 SLP210 T01890178
                 =
2018-09-20 05:54 METAR KVAY 200954Z AUTO 11004KT 10SM OVC015 19/18 A3011 RMK AO2 SLP195 T01940178
                 =
2018-09-20 04:54 METAR KVAY 200854Z AUTO VRB03KT 10SM OVC015 20/18 A3009 RMK AO2 SLP188 T02000183
                 53007 =
2018-09-20 04:44 METAR KVAY 200844Z AUTO 11004KT 10SM OVC015 20/19 A3009 RMK AO2 T02000189 =
2018-09-20 04:36 METAR KVAY 200836Z AUTO 11005KT 10SM BKN013 OVC018 20/19 A3008 RMK AO2 T02000189
                 =
2018-09-20 03:54 METAR KVAY 200754Z AUTO 11003KT 10SM OVC017 20/19 A3008 RMK AO2 SLP185 T02000189
                 =
2018-09-20 02:54 METAR KVAY 200654Z AUTO 10003KT 10SM BKN015 BKN029 BKN050 20/20 A3007 RMK AO2
                 SLP180 T02000200 =
2018-09-20 01:54 METAR KVAY 200554Z AUTO 00000KT 10SM FEW015 BKN023 OVC050 21/20 A3007 RMK AO2
                 RAB23E39 SLP181 P0001 60001 T02060200 10222 20206 53005 =
2018-09-20 00:54 METAR KVAY 200454Z AUTO 12003KT 10SM OVC016 21/21 A3006 RMK AO2 SLP178 T02110206
                 402890172 =
2018-09-20 00:52 METAR KVAY 200452Z AUTO 11003KT 10SM OVC016 21/21 A3006 RMK AO2 =
2018-09-20 00:42 METAR KVAY 200442Z AUTO VRB03KT 10SM OVC014 21/21 A3006 RMK AO2 T02110206 =
2018-09-20 00:03 METAR KVAY 200403Z AUTO 00000KT 10SM FEW009 OVC015 21/21 A3005 RMK AO2 T02110206
                 =
2018-09-19 23:54 METAR KVAY 200354Z AUTO 00000KT 10SM FEW009 OVC014 21/21 A3005 RMK AO2 SLP176
                 T02110206 =
2018-09-19 22:54 METAR KVAY 200254Z AUTO 00000KT 10SM OVC013 21/21 A3004 RMK AO2 SLP171 T02060206
                 51024 =

Support USWX by starting your Amazon purchase here.